Time;durP1;ratioP1;P1;durP2;ratioP2;P2;SDS_P1;SDS_P2;PMS_P1;PMS_P2;Temp;Humidity;BMP_temperature;BMP_pressure;BME280_temperature;BME280_humidity;BME280_pressure;Samples;Min_cycle;Max_cycle;Signal;HPM_P1;HPM_P2
2022/07/19 00:00:31;;;;;;;10.40;9.07;;;25.30;99.90;;;;;;6154056;23;20041;-70
2022/07/19 00:02:56;;;;;;;10.23;9.02;;;25.30;99.90;;;;;;6180513;23;20028;-69
2022/07/19 00:05:23;;;;;;;10.05;9.02;;;25.30;99.90;;;;;;6152693;23;20024;-71
2022/07/19 00:07:48;;;;;;;10.27;8.77;;;25.30;99.90;;;;;;6154521;23;20012;-70
2022/07/19 00:10:16;;;;;;;9.35;8.45;;;25.30;99.90;;;;;;6178862;23;20024;-69
2022/07/19 00:12:42;;;;;;;11.20;8.23;;;25.40;99.90;;;;;;6158929;23;20020;-70
2022/07/19 00:15:10;;;;;;;10.00;8.05;;;25.40;99.90;;;;;;6178566;23;20036;-70
2022/07/19 00:17:40;;;;;;;9.68;7.90;;;25.40;99.90;;;;;;6154393;23;20013;-69
2022/07/19 00:20:08;;;;;;;10.48;9.48;;;25.50;99.90;;;;;;6152134;23;20088;-71
2022/07/19 00:22:33;;;;;;;9.85;7.90;;;25.30;99.90;;;;;;6153733;23;20016;-70
2022/07/19 00:24:59;;;;;;;9.75;8.63;;;25.30;99.90;;;;;;6180375;23;20017;-70
2022/07/19 00:27:25;;;;;;;12.05;10.07;;;25.40;99.90;;;;;;6152985;23;20473;-69
2022/07/19 00:29:51;;;;;;;10.55;9.40;;;25.30;99.90;;;;;;6180635;23;20073;-69
2022/07/19 00:32:16;;;;;;;8.93;8.02;;;25.30;99.90;;;;;;6164908;23;20345;-70
2022/07/19 00:34:42;;;;;;;10.32;9.32;;;25.20;99.90;;;;;;6180381;23;20031;-69
2022/07/19 00:37:08;;;;;;;11.23;8.60;;;25.20;99.90;;;;;;6178109;23;20020;-69
2022/07/19 00:39:34;;;;;;;10.98;8.93;;;25.20;99.90;;;;;;6180258;23;20077;-69
2022/07/19 00:41:59;;;;;;;13.40;9.23;;;25.20;99.90;;;;;;6152893;23;20017;-70
2022/07/19 00:44:25;;;;;;;9.43;8.45;;;25.10;99.90;;;;;;6152579;23;20409;-71
2022/07/19 00:46:51;;;;;;;10.95;9.13;;;25.10;99.90;;;;;;6179474;23;20542;-71
2022/07/19 00:49:17;;;;;;;10.88;9.88;;;25.10;99.90;;;;;;6151766;23;20009;-70
2022/07/19 00:51:43;;;;;;;10.07;8.60;;;25.00;99.90;;;;;;6180350;23;20009;-69
2022/07/19 00:54:11;;;;;;;13.48;10.00;;;25.00;99.90;;;;;;6152626;23;20013;-71
2022/07/19 00:56:38;;;;;;;12.07;10.98;;;25.00;99.90;;;;;;6179604;23;20067;-70
2022/07/19 00:59:05;;;;;;;13.40;12.10;;;25.00;99.90;;;;;;6178752;23;20013;-69
2022/07/19 01:01:31;;;;;;;12.57;11.15;;;24.80;99.90;;;;;;6179440;23;20075;-70
2022/07/19 01:03:58;;;;;;;13.05;11.35;;;24.80;99.90;;;;;;6178815;23;20005;-70
2022/07/19 01:06:24;;;;;;;12.60;10.82;;;24.70;99.90;;;;;;6178228;23;20015;-70
2022/07/19 01:08:51;;;;;;;12.40;11.13;;;24.70;99.90;;;;;;6152298;23;20009;-70
2022/07/19 01:11:17;;;;;;;13.15;11.02;;;24.70;99.90;;;;;;6152137;23;20918;-70
2022/07/19 01:13:43;;;;;;;12.48;11.20;;;24.70;99.90;;;;;;6179759;23;20005;-71
2022/07/19 01:16:09;;;;;;;16.77;13.30;;;24.70;99.90;;;;;;6178434;23;20017;-69
2022/07/19 01:18:35;;;;;;;13.48;12.07;;;24.60;99.90;;;;;;6152672;23;20491;-70
2022/07/19 01:21:03;;;;;;;12.35;11.10;;;24.60;99.90;;;;;;6178542;23;20345;-70
2022/07/19 01:23:29;;;;;;;15.05;11.20;;;24.60;99.90;;;;;;6151521;23;20166;-70
2022/07/19 01:25:56;;;;;;;11.27;10.07;;;24.70;99.90;;;;;;6179479;23;20039;-70
2022/07/19 01:28:22;;;;;;;12.48;10.45;;;24.60;99.90;;;;;;6179099;23;20021;-71
2022/07/19 01:30:47;;;;;;;13.63;10.70;;;24.70;99.90;;;;;;6179505;23;20096;-70
2022/07/19 01:33:13;;;;;;;11.52;9.95;;;24.60;99.90;;;;;;6152099;23;20040;-69
2022/07/19 01:35:39;;;;;;;12.48;10.38;;;24.60;99.90;;;;;;6153574;23;20013;-71
2022/07/19 01:38:05;;;;;;;10.63;9.55;;;24.50;99.90;;;;;;6151270;23;20028;-70
2022/07/19 01:40:32;;;;;;;10.48;9.48;;;24.50;99.90;;;;;;6152926;23;20021;-70
2022/07/19 01:42:59;;;;;;;12.52;11.13;;;24.50;99.90;;;;;;6178399;23;20396;-70
2022/07/19 01:45:26;;;;;;;12.07;10.90;;;24.50;99.90;;;;;;6177994;23;20013;-70
2022/07/19 01:47:52;;;;;;;10.50;9.40;;;24.60;99.90;;;;;;6179601;23;20017;-70
2022/07/19 01:50:19;;;;;;;10.45;9.45;;;24.60;99.90;;;;;;6177780;23;20020;-70
2022/07/19 01:52:45;;;;;;;13.00;9.80;;;24.70;99.90;;;;;;6179403;23;20484;-69
2022/07/19 01:55:11;;;;;;;13.52;10.48;;;24.70;99.90;;;;;;6178256;23;20100;-70
2022/07/19 01:57:39;;;;;;;11.13;9.43;;;24.70;99.90;;;;;;6152966;23;20070;-69
2022/07/19 02:00:06;;;;;;;12.40;11.07;;;24.70;99.90;;;;;;6177873;23;20024;-71
2022/07/19 02:02:32;;;;;;;12.52;10.85;;;24.70;99.90;;;;;;6153186;23;20017;-70
2022/07/19 02:04:58;;;;;;;12.15;10.82;;;24.70;99.90;;;;;;6179386;23;20184;-70
2022/07/19 02:07:23;;;;;;;12.85;10.35;;;24.70;99.90;;;;;;6178532;23;20017;-69
2022/07/19 02:09:50;;;;;;;12.63;11.45;;;24.70;99.90;;;;;;6179523;23;20088;-69
2022/07/19 02:12:16;;;;;;;12.73;11.50;;;24.70;99.90;;;;;;6178814;23;20017;-69
2022/07/19 02:14:42;;;;;;;12.68;11.38;;;24.70;99.90;;;;;;6151893;23;20857;-70
2022/07/19 02:17:08;;;;;;;13.20;10.45;;;24.70;99.90;;;;;;6156259;23;20044;-70
2022/07/19 02:19:34;;;;;;;12.90;11.30;;;24.70;99.90;;;;;;6177933;23;20345;-69
2022/07/19 02:22:00;;;;;;;12.57;11.38;;;24.70;99.90;;;;;;6153037;23;20453;-70
2022/07/19 02:24:28;;;;;;;12.00;10.80;;;24.70;99.90;;;;;;6151661;23;20060;-70
2022/07/19 02:26:53;;;;;;;12.48;10.90;;;24.70;99.90;;;;;;6179290;23;20009;-69
2022/07/19 02:29:19;;;;;;;12.82;11.60;;;24.60;99.90;;;;;;6178997;23;20059;-70
2022/07/19 02:31:45;;;;;;;16.25;13.75;;;24.70;99.90;;;;;;6179955;23;20035;-69
2022/07/19 02:34:11;;;;;;;13.73;12.48;;;24.60;99.90;;;;;;6152203;23;20433;-69
2022/07/19 02:36:38;;;;;;;13.52;11.25;;;24.60;99.90;;;;;;6179595;23;20020;-70
2022/07/19 02:39:04;;;;;;;15.23;12.00;;;24.70;99.90;;;;;;6152278;23;20072;-69
2022/07/19 02:41:31;;;;;;;13.50;12.15;;;24.70;99.90;;;;;;6153377;23;20013;-70
2022/07/19 02:43:57;;;;;;;12.18;11.02;;;24.60;99.90;;;;;;6153038;23;20017;-71
2022/07/19 02:46:23;;;;;;;12.90;11.60;;;24.60;99.90;;;;;;6179909;23;20017;-69
2022/07/19 02:48:50;;;;;;;18.05;12.90;;;24.70;99.90;;;;;;6129811;23;20013;-70
2022/07/19 02:51:16;;;;;;;14.82;12.85;;;24.70;99.90;;;;;;6179757;23;20020;-70
2022/07/19 02:53:42;;;;;;;14.32;12.48;;;24.60;99.90;;;;;;6154710;23;20013;-70
2022/07/19 02:56:07;;;;;;;14.65;12.40;;;24.50;99.90;;;;;;6179970;23;20016;-70
2022/07/19 02:58:33;;;;;;;13.63;12.23;;;24.60;99.90;;;;;;6154993;23;20064;-69
2022/07/19 03:00:59;;;;;;;13.98;12.65;;;24.60;99.90;;;;;;6154307;23;20123;-69
2022/07/19 03:03:43;;;;;;;14.50;13.10;;;24.50;99.90;;;;;;6180262;23;20053;-69
2022/07/19 03:06:11;;;;;;;13.70;12.30;;;24.50;99.90;;;;;;6179819;23;20021;-70
2022/07/19 03:08:37;;;;;;;14.75;13.20;;;24.50;99.90;;;;;;6181228;23;20013;-69
2022/07/19 03:11:04;;;;;;;14.35;12.85;;;24.50;99.90;;;;;;6180433;23;20028;-69
2022/07/19 03:13:30;;;;;;;14.52;13.13;;;24.50;99.90;;;;;;6180749;23;20020;-69
2022/07/19 03:15:56;;;;;;;14.75;13.20;;;24.50;99.90;;;;;;6153884;23;20377;-69
2022/07/19 03:18:21;;;;;;;13.77;12.48;;;24.50;99.90;;;;;;6153374;23;20016;-69
2022/07/19 03:20:47;;;;;;;13.20;11.98;;;24.50;99.90;;;;;;6180325;23;20484;-69
2022/07/19 03:23:13;;;;;;;12.35;11.00;;;24.50;99.90;;;;;;6179482;23;20024;-69
2022/07/19 03:25:39;;;;;;;13.80;10.57;;;24.50;99.90;;;;;;6154297;23;20012;-69
2022/07/19 03:28:05;;;;;;;12.50;11.20;;;24.50;99.90;;;;;;6154010;23;20017;-69
2022/07/19 03:30:33;;;;;;;14.73;13.30;;;24.40;99.90;;;;;;6180890;23;20109;-70
2022/07/19 03:32:59;;;;;;;13.77;11.88;;;24.40;99.90;;;;;;6181168;23;20012;-69
2022/07/19 03:35:25;;;;;;;16.98;14.13;;;24.40;99.90;;;;;;6178983;23;20493;-69
2022/07/19 03:37:51;;;;;;;15.35;13.75;;;24.40;99.90;;;;;;6179804;23;20017;-69
2022/07/19 03:40:17;;;;;;;17.55;15.95;;;24.30;99.90;;;;;;6178387;23;20456;-70
2022/07/19 03:42:43;;;;;;;14.40;12.88;;;24.30;99.90;;;;;;6153894;23;20333;-70
2022/07/19 03:45:09;;;;;;;13.90;12.60;;;24.30;99.90;;;;;;6153208;23;20013;-69
2022/07/19 03:47:37;;;;;;;15.68;14.07;;;24.30;99.90;;;;;;6153936;23;20009;-69
2022/07/19 03:50:03;;;;;;;14.43;12.98;;;24.30;99.90;;;;;;6180092;23;20017;-69
2022/07/19 03:52:29;;;;;;;18.23;16.55;;;24.20;99.90;;;;;;6191536;23;20072;-69
2022/07/19 03:54:55;;;;;;;14.25;12.85;;;24.20;99.90;;;;;;6153888;23;20047;-71
2022/07/19 03:57:21;;;;;;;13.55;12.25;;;24.10;99.90;;;;;;6179043;23;20021;-70
2022/07/19 03:59:47;;;;;;;15.93;14.38;;;24.10;99.90;;;;;;6180736;23;20036;-69
2022/07/19 04:02:14;;;;;;;17.13;14.70;;;24.20;99.90;;;;;;6152413;23;20044;-70
2022/07/19 04:04:41;;;;;;;15.88;14.27;;;24.10;99.90;;;;;;6180715;23;20367;-69
2022/07/19 04:07:07;;;;;;;17.20;15.35;;;24.10;99.90;;;;;;6178871;23;20009;-70
2022/07/19 04:09:33;;;;;;;16.65;14.82;;;24.10;99.90;;;;;;6180148;23;20012;-69
2022/07/19 04:11:59;;;;;;;15.70;14.10;;;24.10;99.90;;;;;;6180370;23;20346;-71
2022/07/19 04:14:25;;;;;;;16.00;14.45;;;24.10;99.90;;;;;;6151644;23;20028;-69
2022/07/19 04:16:50;;;;;;;15.07;13.60;;;24.10;99.90;;;;;;6153774;23;20508;-69
2022/07/19 04:19:16;;;;;;;18.23;16.42;;;24.10;99.90;;;;;;6152314;23;20064;-69
2022/07/19 04:21:42;;;;;;;17.27;15.02;;;24.10;99.90;;;;;;6180781;23;20005;-70
2022/07/19 04:24:08;;;;;;;17.92;16.13;;;24.10;99.90;;;;;;6178916;23;20009;-69
2022/07/19 04:26:35;;;;;;;17.85;16.20;;;24.20;99.90;;;;;;6179940;23;20099;-69
2022/07/19 04:29:01;;;;;;;16.75;15.23;;;24.10;99.90;;;;;;6179378;23;20013;-69
2022/07/19 04:31:26;;;;;;;18.92;15.02;;;24.10;99.90;;;;;;6152675;23;20005;-69
2022/07/19 04:33:52;;;;;;;21.85;18.23;;;24.10;99.90;;;;;;6153268;23;20031;-69
2022/07/19 04:36:18;;;;;;;18.08;16.48;;;24.10;99.90;;;;;;6178997;23;20068;-69
2022/07/19 04:38:43;;;;;;;18.73;16.65;;;24.00;99.90;;;;;;6180766;23;20012;-69
2022/07/19 04:41:09;;;;;;;17.58;15.77;;;24.00;99.90;;;;;;6152401;23;20021;-70
2022/07/19 04:43:35;;;;;;;18.95;17.02;;;24.00;99.90;;;;;;6153156;23;20020;-70
2022/07/19 04:46:01;;;;;;;19.25;17.35;;;23.90;99.90;;;;;;6179749;23;20055;-70
2022/07/19 04:48:27;;;;;;;16.70;15.10;;;23.90;99.90;;;;;;6152810;23;20089;-71
2022/07/19 04:50:53;;;;;;;17.23;15.57;;;24.00;99.90;;;;;;6179598;23;20013;-70
2022/07/19 04:53:19;;;;;;;17.15;13.98;;;24.00;99.90;;;;;;6152682;23;20298;-70
2022/07/19 04:55:44;;;;;;;19.33;15.73;;;24.10;99.90;;;;;;6153674;23;20036;-69
2022/07/19 04:58:10;;;;;;;15.45;13.85;;;24.10;99.90;;;;;;6178247;23;20025;-69
2022/07/19 05:00:36;;;;;;;15.52;13.98;;;24.10;99.90;;;;;;6153298;23;20036;-69
2022/07/19 05:03:02;;;;;;;16.88;14.93;;;24.10;99.90;;;;;;6180104;23;20077;-70
2022/07/19 05:05:28;;;;;;;15.48;13.88;;;24.20;99.90;;;;;;6192224;23;20013;-70
2022/07/19 05:07:54;;;;;;;15.68;14.18;;;24.20;99.90;;;;;;6152840;23;20013;-69
2022/07/19 05:10:19;;;;;;;15.43;13.35;;;24.20;99.90;;;;;;6151739;23;20368;-69
2022/07/19 05:12:45;;;;;;;17.05;15.40;;;24.30;99.90;;;;;;6180024;23;20040;-70
2022/07/19 05:15:11;;;;;;;14.85;13.48;;;24.30;99.90;;;;;;6151704;23;20020;-69
2022/07/19 05:17:37;;;;;;;15.02;13.73;;;24.30;99.90;;;;;;6179383;23;20013;-71
2022/07/19 05:20:04;;;;;;;16.80;14.07;;;24.30;99.90;;;;;;6152245;23;20016;-70
2022/07/19 05:22:30;;;;;;;16.25;13.48;;;24.40;99.90;;;;;;6179866;23;20009;-70
2022/07/19 05:24:56;;;;;;;15.50;13.65;;;24.40;99.90;;;;;;6180234;23;20019;-70
2022/07/19 05:27:22;;;;;;;14.80;11.95;;;24.30;99.90;;;;;;6151193;23;20076;-69
2022/07/19 05:29:48;;;;;;;15.93;12.27;;;24.40;99.90;;;;;;6153399;23;20013;-70
2022/07/19 05:32:14;;;;;;;14.13;12.05;;;24.40;99.90;;;;;;6152856;23;20028;-69
2022/07/19 05:34:39;;;;;;;16.52;13.70;;;24.40;99.90;;;;;;6179369;23;20009;-70
2022/07/19 05:37:05;;;;;;;16.25;13.00;;;24.40;99.90;;;;;;6151301;23;20088;-69
2022/07/19 05:39:31;;;;;;;17.73;13.82;;;24.40;99.90;;;;;;6179339;23;20009;-71
2022/07/19 05:41:57;;;;;;;17.65;15.77;;;24.50;99.90;;;;;;6179540;23;20396;-70
2022/07/19 05:44:23;;;;;;;19.63;15.88;;;24.50;99.90;;;;;;6178834;23;20013;-70
2022/07/19 05:46:49;;;;;;;20.55;17.02;;;24.50;99.90;;;;;;6179207;23;20017;-69
2022/07/19 05:49:15;;;;;;;19.23;17.25;;;24.60;99.90;;;;;;6152203;23;20022;-69
2022/07/19 05:51:41;;;;;;;18.90;17.27;;;24.60;99.90;;;;;;6152322;23;20009;-69
2022/07/19 05:54:07;;;;;;;19.35;17.55;;;24.60;99.90;;;;;;6177946;23;20438;-70
2022/07/19 05:56:34;;;;;;;20.38;18.42;;;24.70;99.90;;;;;;6159530;23;20012;-70
2022/07/19 05:59:01;;;;;;;19.75;18.00;;;24.70;99.90;;;;;;6159068;23;20017;-70
2022/07/19 06:01:27;;;;;;;20.27;18.27;;;24.70;99.90;;;;;;6151663;23;20341;-73
2022/07/19 06:03:58;;;;;;;19.83;17.95;;;24.80;99.90;;;;;;6179719;23;20017;-73
2022/07/19 06:06:27;;;;;;;24.35;20.25;;;24.80;99.90;;;;;;6151493;23;20270;-70
2022/07/19 06:08:55;;;;;;;19.55;17.52;;;24.80;99.90;;;;;;6179363;23;21182;-71
2022/07/19 06:11:22;;;;;;;20.50;18.45;;;24.90;99.90;;;;;;6178299;23;20021;-70
2022/07/19 06:13:49;;;;;;;23.20;21.10;;;24.90;99.90;;;;;;6152532;23;20009;-70
2022/07/19 06:16:15;;;;;;;20.85;18.40;;;25.00;99.90;;;;;;6150761;23;20120;-69
2022/07/19 06:18:41;;;;;;;20.25;18.08;;;25.00;99.90;;;;;;6179406;23;20468;-69
2022/07/19 06:21:12;;;;;;;20.58;18.70;;;25.00;99.90;;;;;;6153149;23;20043;-70
2022/07/19 06:23:39;;;;;;;21.42;19.35;;;25.10;99.90;;;;;;6181076;23;20024;-70
2022/07/19 06:26:06;;;;;;;22.05;19.85;;;25.10;99.90;;;;;;6153528;23;20013;-69
2022/07/19 06:28:32;;;;;;;19.95;17.88;;;25.10;99.90;;;;;;6180810;23;20005;-70
2022/07/19 06:30:58;;;;;;;22.80;20.13;;;25.10;99.90;;;;;;6181272;23;20061;-69
2022/07/19 06:33:24;;;;;;;20.75;18.17;;;25.10;99.90;;;;;;6153753;23;20322;-69
2022/07/19 06:35:50;;;;;;;23.58;17.17;;;25.10;99.90;;;;;;6155248;23;20017;-69
2022/07/19 06:38:16;;;;;;;18.52;16.77;;;25.20;99.90;;;;;;6153105;23;20013;-70
2022/07/19 06:40:42;;;;;;;18.85;16.95;;;25.30;99.90;;;;;;6180605;23;20040;-69
2022/07/19 06:43:08;;;;;;;21.25;18.90;;;25.30;99.90;;;;;;6179205;23;20564;-70
2022/07/19 06:45:35;;;;;;;24.40;21.77;;;25.40;99.90;;;;;;6154429;23;20013;-70
2022/07/19 06:48:01;;;;;;;22.10;18.55;;;25.40;99.90;;;;;;6181249;23;20715;-70
2022/07/19 06:50:27;;;;;;;20.90;18.63;;;25.40;99.90;;;;;;6179007;23;20095;-71
2022/07/19 06:52:53;;;;;;;22.15;19.85;;;25.60;99.90;;;;;;6180267;23;20016;-70
2022/07/19 06:55:20;;;;;;;20.20;17.92;;;25.60;99.90;;;;;;6179345;23;20017;-70
2022/07/19 06:57:46;;;;;;;23.52;17.98;;;25.70;99.90;;;;;;6153896;23;20043;-69
2022/07/19 07:00:14;;;;;;;24.77;19.10;;;25.80;99.90;;;;;;6152992;23;20045;-70
2022/07/19 07:02:41;;;;;;;19.95;17.48;;;25.90;99.90;;;;;;6180257;23;20076;-71
2022/07/19 07:05:09;;;;;;;19.55;17.55;;;25.90;99.90;;;;;;6180242;23;20020;-69
2022/07/19 07:07:35;;;;;;;20.83;18.52;;;26.00;99.90;;;;;;6154322;23;20032;-70
2022/07/19 07:10:03;;;;;;;20.27;18.15;;;26.00;99.90;;;;;;6153753;23;20013;-69
2022/07/19 07:12:29;;;;;;;20.27;16.90;;;26.00;99.90;;;;;;6162384;23;20017;-70
2022/07/19 07:14:55;;;;;;;19.60;17.42;;;26.20;99.90;;;;;;6180076;23;20009;-70
2022/07/19 07:17:21;;;;;;;20.65;16.40;;;26.20;99.90;;;;;;6153578;23;20009;-69
2022/07/19 07:19:47;;;;;;;16.67;15.00;;;26.30;99.90;;;;;;6164946;23;20072;-70
2022/07/19 07:22:13;;;;;;;18.55;16.63;;;26.40;99.90;;;;;;6179849;23;20017;-69
2022/07/19 07:24:39;;;;;;;16.63;14.25;;;26.40;99.90;;;;;;6153676;23;20035;-70
2022/07/19 07:27:05;;;;;;;21.23;13.05;;;26.60;99.90;;;;;;6179255;23;20031;-68
2022/07/19 07:29:31;;;;;;;17.88;15.10;;;26.80;99.90;;;;;;6180511;23;20013;-69
2022/07/19 07:31:57;;;;;;;16.17;14.48;;;26.80;99.90;;;;;;6179769;23;20020;-70
2022/07/19 07:34:23;;;;;;;19.73;14.82;;;27.00;99.90;;;;;;6152549;23;20318;-69
2022/07/19 07:36:49;;;;;;;20.08;15.70;;;27.00;99.90;;;;;;6153454;23;20013;-71
2022/07/19 07:39:16;;;;;;;21.85;17.15;;;26.80;99.90;;;;;;6152268;23;20019;-70
2022/07/19 07:41:42;;;;;;;27.00;16.02;;;26.60;99.90;;;;;;6152591;23;20016;-69
2022/07/19 07:44:08;;;;;;;19.38;14.98;;;26.70;99.90;;;;;;6176886;23;20023;-69
2022/07/19 07:46:34;;;;;;;23.73;15.27;;;26.80;99.90;;;;;;6143168;23;20041;-69
2022/07/19 07:49:00;;;;;;;24.95;14.80;;;26.80;99.90;;;;;;6147239;23;20032;-70
2022/07/19 07:51:25;;;;;;;19.45;15.77;;;26.90;99.90;;;;;;6170652;23;20405;-69
2022/07/19 07:53:52;;;;;;;16.73;13.43;;;27.10;99.90;;;;;;6171037;23;20040;-70
2022/07/19 07:56:17;;;;;;;20.98;12.90;;;27.20;99.90;;;;;;6169632;23;20013;-69
2022/07/19 07:58:43;;;;;;;18.17;14.27;;;27.40;99.90;;;;;;6169664;23;20092;-70
2022/07/19 08:01:09;;;;;;;21.80;14.52;;;27.50;99.90;;;;;;6172509;23;20032;-69
2022/07/19 08:03:35;;;;;;;17.75;13.55;;;27.60;99.90;;;;;;6173520;23;20013;-70
2022/07/19 08:06:01;;;;;;;18.67;15.00;;;27.60;99.90;;;;;;6175188;23;20024;-69
2022/07/19 08:08:27;;;;;;;18.95;13.05;;;27.50;99.90;;;;;;6172127;23;20349;-70
2022/07/19 08:10:54;;;;;;;17.75;14.18;;;27.40;99.90;;;;;;6171107;23;20900;-70
2022/07/19 08:13:20;;;;;;;23.33;14.73;;;27.50;99.90;;;;;;6143730;23;20243;-69
2022/07/19 08:15:47;;;;;;;22.42;15.93;;;27.70;99.90;;;;;;6173087;23;20394;-69
2022/07/19 08:18:13;;;;;;;18.27;13.75;;;27.80;99.90;;;;;;6144143;23;20445;-68
2022/07/19 08:20:39;;;;;;;25.00;16.10;;;27.80;99.90;;;;;;6146142;23;20029;-70
2022/07/19 08:23:06;;;;;;;19.70;13.82;;;27.90;99.90;;;;;;6168655;23;20017;-69
2022/07/19 08:25:34;;;;;;;27.65;15.77;;;27.90;99.90;;;;;;6171643;23;20020;-69
2022/07/19 08:28:01;;;;;;;19.13;14.75;;;27.90;99.90;;;;;;6140686;23;20457;-69
2022/07/19 08:30:27;;;;;;;18.70;14.98;;;27.90;99.90;;;;;;6147034;23;20063;-69
2022/07/19 08:32:53;;;;;;;24.20;15.55;;;28.00;99.90;;;;;;6145876;23;20013;-69
2022/07/19 08:35:19;;;;;;;18.92;14.95;;;28.00;99.90;;;;;;6168935;23;20444;-69
2022/07/19 08:37:45;;;;;;;18.25;14.23;;;28.10;99.90;;;;;;6171040;23;20020;-70
2022/07/19 08:40:12;;;;;;;15.02;13.13;;;28.10;99.90;;;;;;6143235;23;20021;-69
2022/07/19 08:42:38;;;;;;;22.40;14.20;;;28.20;99.90;;;;;;6144105;23;20005;-69
2022/07/19 08:45:07;;;;;;;16.88;14.23;;;28.40;99.90;;;;;;6142435;23;20009;-69
2022/07/19 08:47:35;;;;;;;16.90;13.63;;;28.30;99.90;;;;;;6140666;23;20393;-70
2022/07/19 08:50:04;;;;;;;18.90;13.85;;;28.40;99.90;;;;;;6173198;23;20026;-70
2022/07/19 08:52:32;;;;;;;14.85;13.15;;;28.70;99.90;;;;;;6143683;23;20032;-69
2022/07/19 08:54:58;;;;;;;23.58;12.93;;;29.00;99.90;;;;;;6143577;23;20374;-68
2022/07/19 09:00:10;;;;;;;17.83;13.00;;;28.90;99.90;;;;;;6167443;23;20024;-70
2022/07/19 09:02:36;;;;;;;20.25;12.88;;;29.00;99.90;;;;;;6141850;23;20118;-70
2022/07/19 09:05:05;;;;;;;15.23;11.88;;;29.10;99.90;;;;;;6170440;23;20040;-69
2022/07/19 09:07:31;;;;;;;13.65;10.75;;;29.10;99.90;;;;;;6165069;23;20013;-69
2022/07/19 09:10:20;;;;;;;16.25;10.40;;;29.20;99.90;;;;;;6139079;23;20108;-69
2022/07/19 09:13:15;;;;;;;14.85;10.20;;;29.40;99.90;;;;;;6168016;23;20100;-70
2022/07/19 09:15:46;;;;;;;13.45;9.98;;;29.40;99.90;;;;;;6168368;23;20016;-69
2022/07/19 09:18:35;;;;;;;13.43;12.02;;;29.40;99.90;;;;;;6142559;23;20388;-69
2022/07/19 09:21:07;;;;;;;11.75;9.52;;;29.40;99.90;;;;;;6168404;23;20028;-70
2022/07/19 09:23:33;;;;;;;13.70;11.98;;;29.30;99.90;;;;;;6149216;23;20579;-70
2022/07/19 09:26:06;;;;;;;18.13;10.43;;;29.20;99.90;;;;;;6140579;23;20096;-69
2022/07/19 09:28:34;;;;;;;13.70;10.48;;;29.20;99.90;;;;;;6141751;23;20017;-69
2022/07/19 09:31:02;;;;;;;13.90;11.55;;;29.30;99.90;;;;;;6182847;23;20021;-69
2022/07/19 09:33:32;;;;;;;13.38;10.63;;;29.20;99.90;;;;;;6141341;23;20867;-69
2022/07/19 09:36:10;;;;;;;12.95;10.20;;;29.40;99.90;;;;;;6168374;23;20017;-69
2022/07/19 09:38:37;;;;;;;13.45;10.88;;;29.40;99.90;;;;;;6151301;23;20009;-69
2022/07/19 09:41:17;;;;;;;14.57;11.70;;;29.40;99.90;;;;;;6167704;23;20029;-69
2022/07/19 09:44:00;;;;;;;16.73;10.77;;;29.40;99.90;;;;;;6169374;23;20487;-69
2022/07/19 09:46:30;;;;;;;15.02;11.32;;;29.40;99.90;;;;;;6140541;23;20024;-71
2022/07/19 09:49:17;;;;;;;16.42;10.43;;;29.60;99.90;;;;;;6152134;23;20096;-69
2022/07/19 09:51:49;;;;;;;13.65;10.63;;;29.60;99.90;;;;;;6167584;23;20013;-69
2022/07/19 09:54:22;;;;;;;15.35;11.70;;;29.70;99.90;;;;;;6167722;23;20021;-70
2022/07/19 09:56:50;;;;;;;15.00;11.52;;;29.70;99.90;;;;;;6150803;23;20020;-70
2022/07/19 09:59:16;;;;;;;14.73;9.93;;;29.60;99.90;;;;;;6168549;23;20024;-72
2022/07/19 10:01:43;;;;;;;15.02;10.98;;;29.60;99.90;;;;;;6167904;23;20092;-70
2022/07/19 10:04:16;;;;;;;10.93;8.65;;;29.50;99.90;;;;;;6166880;23;20044;-70
2022/07/19 10:06:43;;;;;;;15.73;10.38;;;29.60;99.90;;;;;;6169608;23;20017;-70
2022/07/19 10:09:11;;;;;;;11.85;8.10;;;29.80;99.90;;;;;;6165229;23;20021;-70
2022/07/19 10:11:38;;;;;;;12.95;8.30;;;30.00;99.90;;;;;;6167003;23;20016;-70
2022/07/19 10:14:04;;;;;;;11.05;8.35;;;30.10;99.90;;;;;;6169381;23;20503;-71
2022/07/19 10:16:51;;;;;;;10.77;7.85;;;30.20;99.90;;;;;;6168764;23;20013;-69
2022/07/19 10:19:49;;;;;;;9.45;7.03;;;30.30;99.90;;;;;;6165107;23;20028;-69
2022/07/19 10:22:20;;;;;;;9.65;6.78;;;30.50;99.90;;;;;;6161637;23;20100;-69
2022/07/19 10:24:58;;;;;;;16.42;7.57;;;31.00;99.90;;;;;;6142670;23;20115;-69
2022/07/19 10:27:24;;;;;;;8.93;6.32;;;30.90;99.90;;;;;;6146073;23;20013;-69
2022/07/19 10:30:12;;;;;;;9.73;6.10;;;30.60;99.90;;;;;;6177881;23;20035;-68
2022/07/19 10:32:40;;;;;;;10.40;5.47;;;30.80;99.90;;;;;;6167317;23;20211;-69
2022/07/19 10:35:19;;;;;;;6.40;5.10;;;30.70;99.90;;;;;;6169525;23;20320;-70
2022/07/19 10:37:53;;;;;;;8.52;5.43;;;30.80;99.90;;;;;;6142928;23;20017;-70
2022/07/19 10:40:41;;;;;;;7.90;4.63;;;30.60;99.90;;;;;;6169440;23;20017;-71
2022/07/19 10:43:10;;;;;;;8.43;4.90;;;30.80;99.90;;;;;;6139897;23;20012;-71
2022/07/19 10:45:38;;;;;;;7.80;4.10;;;30.10;99.90;;;;;;6171323;23;20005;-70
2022/07/19 10:48:15;;;;;;;8.68;4.25;;;30.50;99.90;;;;;;6145594;23;20061;-71
2022/07/19 10:50:44;;;;;;;10.00;4.03;;;30.30;99.90;;;;;;6170466;23;20100;-70
2022/07/19 10:53:10;;;;;;;7.53;4.10;;;30.30;99.90;;;;;;6169520;23;20037;-71
2022/07/19 10:55:36;;;;;;;6.40;3.67;;;30.60;99.90;;;;;;6144110;23;20480;-70
2022/07/19 10:58:11;;;;;;;5.20;3.55;;;30.90;99.90;;;;;;6169363;23;20100;-70
2022/07/19 11:00:45;;;;;;;5.30;3.22;;;31.00;99.90;;;;;;6178710;23;20564;-70
2022/07/19 11:03:23;;;;;;;6.53;3.50;;;31.30;99.90;;;;;;6176977;23;20093;-70
2022/07/19 11:05:50;;;;;;;8.15;3.25;;;31.30;99.90;;;;;;6152395;23;20429;-70
2022/07/19 11:08:16;;;;;;;7.57;3.22;;;31.30;99.90;;;;;;6169618;23;20016;-69
2022/07/19 11:10:42;;;;;;;6.25;3.55;;;31.30;99.90;;;;;;6180691;23;20019;-69
2022/07/19 11:13:08;;;;;;;8.65;3.10;;;31.60;99.90;;;;;;6169963;23;20025;-70
2022/07/19 11:15:34;;;;;;;6.82;3.17;;;31.90;99.90;;;;;;6174134;23;20028;-71
2022/07/19 11:18:06;;;;;;;5.60;2.97;;;32.00;99.90;;;;;;6172470;23;20017;-70
2022/07/19 11:20:34;;;;;;;4.15;2.72;;;32.20;99.90;;;;;;6168968;23;21086;-70
2022/07/19 11:23:04;;;;;;;5.30;2.78;;;31.90;99.90;;;;;;6147039;23;20013;-70
2022/07/19 11:25:34;;;;;;;3.40;2.42;;;31.80;99.10;;;;;;6185327;23;20028;-71
2022/07/19 11:28:00;;;;;;;6.13;3.53;;;32.30;98.80;;;;;;6172503;23;20017;-70
2022/07/19 11:30:28;;;;;;;7.20;3.40;;;32.40;99.90;;;;;;6147549;23;20013;-70
2022/07/19 11:33:05;;;;;;;5.30;3.38;;;32.40;99.90;;;;;;6144653;23;20017;-69
2022/07/19 11:35:31;;;;;;;9.63;3.13;;;32.90;99.90;;;;;;6189495;23;20013;-70
2022/07/19 11:37:59;;;;;;;4.03;3.17;;;32.90;99.90;;;;;;6144534;23;20009;-71
2022/07/19 11:40:35;;;;;;;5.68;3.30;;;32.70;99.90;;;;;;6173162;23;20491;-71
2022/07/19 11:43:05;;;;;;;8.02;3.28;;;32.10;99.90;;;;;;6174591;23;20102;-70
2022/07/19 11:45:30;;;;;;;9.68;3.60;;;32.20;99.90;;;;;;6173519;23;20363;-71
2022/07/19 11:47:57;;;;;;;8.73;3.30;;;32.00;99.90;;;;;;6146341;23;20024;-70
2022/07/19 11:50:26;;;;;;;4.53;2.92;;;32.50;99.90;;;;;;6146223;23;20016;-70
2022/07/19 11:52:57;;;;;;;6.63;3.40;;;32.50;99.90;;;;;;6150418;23;20357;-70
2022/07/19 11:55:33;;;;;;;10.93;3.58;;;32.30;99.90;;;;;;6173580;23;20039;-71
2022/07/19 11:58:05;;;;;;;5.63;3.35;;;32.70;99.90;;;;;;6172622;23;20024;-70
2022/07/19 12:00:33;;;;;;;6.22;3.60;;;32.40;99.90;;;;;;6154017;23;20599;-71
2022/07/19 12:03:08;;;;;;;7.85;3.40;;;32.00;99.90;;;;;;6179553;23;20021;-70
2022/07/19 12:05:39;;;;;;;5.90;3.13;;;32.40;99.90;;;;;;6178196;23;20019;-70
2022/07/19 12:08:09;;;;;;;4.30;2.92;;;33.00;99.90;;;;;;6178672;23;20021;-70
2022/07/19 12:10:43;;;;;;;7.05;2.85;;;33.80;99.90;;;;;;6153128;23;20017;-71
2022/07/19 12:13:14;;;;;;;7.18;3.33;;;34.60;99.90;;;;;;6151406;23;20092;-71
2022/07/19 12:15:54;;;;;;;5.63;3.30;;;35.00;99.90;;;;;;6153922;23;20092;-72
2022/07/19 12:18:23;;;;;;;8.70;3.28;;;35.00;98.90;;;;;;6150440;23;20017;-69
2022/07/19 12:21:23;;;;;;;6.53;3.28;;;34.60;98.10;;;;;;6152953;23;20416;-70
2022/07/19 12:24:07;;;;;;;5.90;2.90;;;34.70;98.80;;;;;;6178584;23;20035;-70
2022/07/19 12:26:33;;;;;;;7.85;3.10;;;35.10;99.20;;;;;;6152688;23;20013;-71
2022/07/19 12:28:59;;;;;;;6.03;2.75;;;34.60;99.70;;;;;;6178530;23;20027;-70
2022/07/19 12:31:25;;;;;;;5.32;2.78;;;35.10;99.40;;;;;;6154602;23;20491;-71
2022/07/19 12:34:00;;;;;;;4.97;2.60;;;35.60;98.70;;;;;;6179992;23;20445;-70
2022/07/19 12:36:36;;;;;;;6.72;3.28;;;34.90;99.40;;;;;;6179589;23;20548;-71